Decoded Metar for LEBT (VALENCIA in SPAIN) (IATA:N/A) | Meteo·Mobile Aviation Weather
aviador You're here:

LEBT Decoded Metar

VALENCIA in SPAIN
Report Time2020-02-23 11:30:00
UTC Time2020-02-23 12:03:21
Flight Rules vfr VFR
WindVRB at 02 kt
Visibility9999 m
Phenomena:N/A
Clouds:N/A
Expected CloudBase > 7,600 ft AGL from Temp-Dew spread
CeilingNone
Temp21°C (ISA +6)
Dew Point02°C (29% RH)
AAT18.7°C
QNH1033 hPa
Density Alt335 ft
Elevation164 ft
Report Wrong Elevation
Raw Report
METAR LEBT 231130Z AUTO VRB02KT CAVOK 21/02 Q1033=

Extra information for LEBT:More info

Metar Taf Metar & Taf Last 4 Metars F.Rules Stats Wind Profile Meteogram Temp Stats Metar ALERT Operation Metar Decoded Social comments